sensor_id;sensor_type;location;lat;lon;timestamp;pressure;altitude;pressure_sealevel;temperature;humidity
17362;BME280;8798;51.938;4.348;2022-12-29T00:02:15;100321.97;;;12.15;86.59
17362;BME280;8798;51.938;4.348;2022-12-29T00:04:43;100320.78;;;12.18;86.40
17362;BME280;8798;51.938;4.348;2022-12-29T00:07:11;100317.06;;;12.19;86.98
17362;BME280;8798;51.938;4.348;2022-12-29T00:09:39;100313.19;;;12.21;86.31
17362;BME280;8798;51.938;4.348;2022-12-29T00:12:06;100319.41;;;12.22;86.65
17362;BME280;8798;51.938;4.348;2022-12-29T00:14:35;100314.03;;;12.22;86.38
17362;BME280;8798;51.938;4.348;2022-12-29T00:17:20;100304.09;;;12.22;86.82
17362;BME280;8798;51.938;4.348;2022-12-29T00:19:48;100294.16;;;12.23;86.60
17362;BME280;8798;51.938;4.348;2022-12-29T00:22:34;100299.38;;;12.24;86.28
17362;BME280;8798;51.938;4.348;2022-12-29T00:25:19;100294.81;;;12.25;86.12
17362;BME280;8798;51.938;4.348;2022-12-29T00:28:04;100297.34;;;12.26;86.56
17362;BME280;8798;51.938;4.348;2022-12-29T00:30:51;100287.41;;;12.27;86.21
17362;BME280;8798;51.938;4.348;2022-12-29T00:33:36;100277.63;;;12.26;86.29
17362;BME280;8798;51.938;4.348;2022-12-29T00:36:23;100277.63;;;12.26;86.64
17362;BME280;8798;51.938;4.348;2022-12-29T00:38:55;100266.03;;;12.25;86.71
17362;BME280;8798;51.938;4.348;2022-12-29T00:41:43;100244.84;;;12.22;86.51
17362;BME280;8798;51.938;4.348;2022-12-29T00:44:40;100225.34;;;12.20;86.65
17362;BME280;8798;51.938;4.348;2022-12-29T00:47:09;100222.81;;;12.19;86.65
17362;BME280;8798;51.938;4.348;2022-12-29T00:49:37;100209.56;;;12.17;86.70
17362;BME280;8798;51.938;4.348;2022-12-29T00:52:05;100177.94;;;12.11;86.65
17362;BME280;8798;51.938;4.348;2022-12-29T00:54:34;100149.88;;;12.05;86.35
17362;BME280;8798;51.938;4.348;2022-12-29T00:57:03;100125.19;;;12.02;86.47
17362;BME280;8798;51.938;4.348;2022-12-29T00:59:31;100110.41;;;11.98;86.26
17362;BME280;8798;51.938;4.348;2022-12-29T01:01:59;100107.72;;;11.98;86.17
17362;BME280;8798;51.938;4.348;2022-12-29T01:04:29;100119.16;;;12.00;86.45
17362;BME280;8798;51.938;4.348;2022-12-29T01:06:56;100108.38;;;12.00;86.50
17362;BME280;8798;51.938;4.348;2022-12-29T01:09:24;100105.84;;;11.98;86.49
17362;BME280;8798;51.938;4.348;2022-12-29T01:12:10;100104.00;;;11.99;86.05
17362;BME280;8798;51.938;4.348;2022-12-29T01:14:39;100099.47;;;11.99;85.99
17362;BME280;8798;51.938;4.348;2022-12-29T01:17:07;100102.16;;;11.99;86.03
17362;BME280;8798;51.938;4.348;2022-12-29T01:19:36;100098.44;;;12.00;86.50
17362;BME280;8798;51.938;4.348;2022-12-29T01:22:04;100098.28;;;12.02;85.83
17362;BME280;8798;51.938;4.348;2022-12-29T01:24:32;100088.50;;;12.01;86.65
17362;BME280;8798;51.938;4.348;2022-12-29T01:27:00;100078.94;;;11.98;86.44
17362;BME280;8798;51.938;4.348;2022-12-29T01:29:29;100075.59;;;11.96;86.45
17362;BME280;8798;51.938;4.348;2022-12-29T01:31:56;100064.00;;;11.96;86.34
17362;BME280;8798;51.938;4.348;2022-12-29T01:34:24;100046.34;;;11.93;86.22
17362;BME280;8798;51.938;4.348;2022-12-29T01:36:53;100043.00;;;11.91;86.40
17362;BME280;8798;51.938;4.348;2022-12-29T01:39:21;100025.19;;;11.90;86.00
17362;BME280;8798;51.938;4.348;2022-12-29T01:41:49;100020.81;;;11.89;86.21
17362;BME280;8798;51.938;4.348;2022-12-29T01:44:51;100010.22;;;11.88;86.19
17362;BME280;8798;51.938;4.348;2022-12-29T01:47:30;100006.03;;;11.85;85.95
17362;BME280;8798;51.938;4.348;2022-12-29T01:50:04;99993.75;;;11.82;86.36
17362;BME280;8798;51.938;4.348;2022-12-29T01:52:37;99996.25;;;11.84;86.12
17362;BME280;8798;51.938;4.348;2022-12-29T01:55:08;100006.84;;;11.86;86.63
17362;BME280;8798;51.938;4.348;2022-12-29T01:57:39;100012.09;;;11.87;86.27
17362;BME280;8798;51.938;4.348;2022-12-29T02:00:10;100009.22;;;11.89;86.54
17362;BME280;8798;51.938;4.348;2022-12-29T02:02:40;100024.16;;;11.91;86.54
17362;BME280;8798;51.938;4.348;2022-12-29T02:05:11;100042.66;;;11.94;86.11
17362;BME280;8798;51.938;4.348;2022-12-29T02:07:44;100048.50;;;11.98;86.19
17362;BME280;8798;51.938;4.348;2022-12-29T02:10:12;100059.94;;;12.00;86.18
17362;BME280;8798;51.938;4.348;2022-12-29T02:12:40;100064.13;;;12.02;85.84
17362;BME280;8798;51.938;4.348;2022-12-29T02:15:09;100061.22;;;12.04;86.07
17362;BME280;8798;51.938;4.348;2022-12-29T02:17:59;100064.78;;;12.04;85.78
17362;BME280;8798;51.938;4.348;2022-12-29T02:20:47;100063.75;;;12.05;86.25
17362;BME280;8798;51.938;4.348;2022-12-29T02:23:41;100062.91;;;12.05;86.26
17362;BME280;8798;51.938;4.348;2022-12-29T02:26:34;100046.09;;;12.03;86.07
17362;BME280;8798;51.938;4.348;2022-12-29T02:29:21;100043.41;;;12.03;86.18
17362;BME280;8798;51.938;4.348;2022-12-29T02:32:00;100042.56;;;12.02;85.93
17362;BME280;8798;51.938;4.348;2022-12-29T02:34:39;100030.78;;;12.03;86.12
17362;BME280;8798;51.938;4.348;2022-12-29T02:37:18;100025.59;;;12.02;86.39
17362;BME280;8798;51.938;4.348;2022-12-29T02:39:50;100019.56;;;12.00;86.29
17362;BME280;8798;51.938;4.348;2022-12-29T02:42:25;100007.28;;;11.97;86.16
17362;BME280;8798;51.938;4.348;2022-12-29T02:45:02;99988.63;;;11.96;85.51
17362;BME280;8798;51.938;4.348;2022-12-29T02:47:37;99983.63;;;11.93;85.57
17362;BME280;8798;51.938;4.348;2022-12-29T02:50:13;99979.06;;;11.93;85.89
17362;BME280;8798;51.938;4.348;2022-12-29T02:52:47;99978.41;;;11.91;85.48
17362;BME280;8798;51.938;4.348;2022-12-29T02:55:17;99971.16;;;11.92;85.54
17362;BME280;8798;51.938;4.348;2022-12-29T02:57:44;99980.91;;;11.93;85.66
17362;BME280;8798;51.938;4.348;2022-12-29T03:00:15;99978.22;;;11.93;85.67
17362;BME280;8798;51.938;4.348;2022-12-29T03:03:00;99976.38;;;11.93;85.20
17362;BME280;8798;51.938;4.348;2022-12-29T03:05:46;99979.06;;;11.93;85.29
17362;BME280;8798;51.938;4.348;2022-12-29T03:08:23;99979.88;;;11.94;85.36
17362;BME280;8798;51.938;4.348;2022-12-29T03:10:59;99977.03;;;11.95;84.94
17362;BME280;8798;51.938;4.348;2022-12-29T03:13:35;99969.31;;;11.92;85.60
17362;BME280;8798;51.938;4.348;2022-12-29T03:16:28;99947.31;;;11.89;85.54
17362;BME280;8798;51.938;4.348;2022-12-29T03:19:06;99933.19;;;11.87;85.47
17362;BME280;8798;51.938;4.348;2022-12-29T03:21:37;99923.44;;;11.86;85.01
17362;BME280;8798;51.938;4.348;2022-12-29T03:24:28;99924.63;;;11.83;85.44
17362;BME280;8798;51.938;4.348;2022-12-29T03:26:59;99899.75;;;11.81;85.14
17362;BME280;8798;51.938;4.348;2022-12-29T03:29:30;99887.50;;;11.78;84.62
17362;BME280;8798;51.938;4.348;2022-12-29T03:32:01;99898.09;;;11.80;84.91
17362;BME280;8798;51.938;4.348;2022-12-29T03:34:33;99914.91;;;11.82;84.90
17362;BME280;8798;51.938;4.348;2022-12-29T03:37:06;99916.56;;;11.83;85.07
17362;BME280;8798;51.938;4.348;2022-12-29T03:39:37;99911.34;;;11.81;84.37
17362;BME280;8798;51.938;4.348;2022-12-29T03:42:09;99901.44;;;11.82;84.87
17362;BME280;8798;51.938;4.348;2022-12-29T03:44:42;99898.94;;;11.80;84.52
17362;BME280;8798;51.938;4.348;2022-12-29T03:47:11;99892.72;;;11.80;85.05
17362;BME280;8798;51.938;4.348;2022-12-29T03:49:41;99879.44;;;11.78;84.45
17362;BME280;8798;51.938;4.348;2022-12-29T03:52:09;99884.00;;;11.78;84.72
17362;BME280;8798;51.938;4.348;2022-12-29T03:54:37;99879.59;;;11.77;84.41
17362;BME280;8798;51.938;4.348;2022-12-29T03:57:04;99875.25;;;11.76;84.06
17362;BME280;8798;51.938;4.348;2022-12-29T03:59:32;99865.69;;;11.73;84.16
17362;BME280;8798;51.938;4.348;2022-12-29T04:02:00;99849.94;;;11.70;84.01
17362;BME280;8798;51.938;4.348;2022-12-29T04:04:28;99840.38;;;11.68;84.03
17362;BME280;8798;51.938;4.348;2022-12-29T04:06:57;99827.09;;;11.66;84.29
17362;BME280;8798;51.938;4.348;2022-12-29T04:09:25;99819.41;;;11.63;84.30
17362;BME280;8798;51.938;4.348;2022-12-29T04:11:53;99812.53;;;11.60;83.97
17362;BME280;8798;51.938;4.348;2022-12-29T04:14:21;99782.84;;;11.54;84.20
17362;BME280;8798;51.938;4.348;2022-12-29T04:16:49;99782.19;;;11.52;84.04
17362;BME280;8798;51.938;4.348;2022-12-29T04:19:16;99771.63;;;11.50;84.28
17362;BME280;8798;51.938;4.348;2022-12-29T04:21:44;99758.75;;;11.46;84.16
17362;BME280;8798;51.938;4.348;2022-12-29T04:24:12;99756.88;;;11.46;84.19
17362;BME280;8798;51.938;4.348;2022-12-29T04:26:40;99757.91;;;11.45;84.35
17362;BME280;8798;51.938;4.348;2022-12-29T04:29:08;99762.25;;;11.46;83.57
17362;BME280;8798;51.938;4.348;2022-12-29T04:31:36;99768.47;;;11.47;83.81
17362;BME280;8798;51.938;4.348;2022-12-29T04:34:04;99769.28;;;11.47;83.82
17362;BME280;8798;51.938;4.348;2022-12-29T04:36:32;99771.16;;;11.47;83.45
17362;BME280;8798;51.938;4.348;2022-12-29T04:39:00;99773.03;;;11.46;83.68
17362;BME280;8798;51.938;4.348;2022-12-29T04:41:29;99766.81;;;11.46;83.45
17362;BME280;8798;51.938;4.348;2022-12-29T04:43:56;99769.50;;;11.46;83.20
17362;BME280;8798;51.938;4.348;2022-12-29T04:46:24;99768.66;;;11.45;83.96
17362;BME280;8798;51.938;4.348;2022-12-29T04:48:52;99786.28;;;11.48;83.42
17362;BME280;8798;51.938;4.348;2022-12-29T04:51:20;99788.59;;;11.51;83.30
17362;BME280;8798;51.938;4.348;2022-12-29T04:53:48;99786.91;;;11.50;83.65
17362;BME280;8798;51.938;4.348;2022-12-29T04:56:16;99788.78;;;11.49;83.97
17362;BME280;8798;51.938;4.348;2022-12-29T04:58:45;99777.56;;;11.46;83.90
17362;BME280;8798;51.938;4.348;2022-12-29T05:01:13;99762.81;;;11.41;84.07
17362;BME280;8798;51.938;4.348;2022-12-29T05:03:41;99753.47;;;11.37;83.37
17362;BME280;8798;51.938;4.348;2022-12-29T05:06:09;99741.41;;;11.33;83.37
17362;BME280;8798;51.938;4.348;2022-12-29T05:08:37;99728.31;;;11.30;83.77
17362;BME280;8798;51.938;4.348;2022-12-29T05:11:04;99730.16;;;11.30;83.47
17362;BME280;8798;51.938;4.348;2022-12-29T05:13:32;99723.28;;;11.27;83.42
17362;BME280;8798;51.938;4.348;2022-12-29T05:16:02;99708.56;;;11.23;83.80
17362;BME280;8798;51.938;4.348;2022-12-29T05:18:30;99706.06;;;11.22;83.37
17362;BME280;8798;51.938;4.348;2022-12-29T05:20:57;99703.53;;;11.20;83.80
17362;BME280;8798;51.938;4.348;2022-12-29T05:23:25;99691.31;;;11.17;83.54
17362;BME280;8798;51.938;4.348;2022-12-29T05:25:53;99675.75;;;11.13;83.45
17362;BME280;8798;51.938;4.348;2022-12-29T05:28:21;99659.97;;;11.10;83.55
17362;BME280;8798;51.938;4.348;2022-12-29T05:30:49;99667.22;;;11.09;83.21
17362;BME280;8798;51.938;4.348;2022-12-29T05:33:19;99670.09;;;11.08;83.41
17362;BME280;8798;51.938;4.348;2022-12-29T05:35:46;99675.50;;;11.08;83.71
17362;BME280;8798;51.938;4.348;2022-12-29T05:38:14;99677.97;;;11.09;83.30
17362;BME280;8798;51.938;4.348;2022-12-29T05:40:45;99691.22;;;11.11;83.55
17362;BME280;8798;51.938;4.348;2022-12-29T05:43:13;99685.19;;;11.09;83.82
17362;BME280;8798;51.938;4.348;2022-12-29T05:45:41;99675.66;;;11.06;83.33
17362;BME280;8798;51.938;4.348;2022-12-29T05:48:08;99669.78;;;11.03;83.89
17362;BME280;8798;51.938;4.348;2022-12-29T05:50:37;99651.56;;;10.98;83.93
17362;BME280;8798;51.938;4.348;2022-12-29T05:53:05;99635.16;;;10.93;83.76
17362;BME280;8798;51.938;4.348;2022-12-29T05:55:34;99620.59;;;10.87;83.65
17362;BME280;8798;51.938;4.348;2022-12-29T05:58:01;99606.72;;;10.84;83.44
17362;BME280;8798;51.938;4.348;2022-12-29T06:00:29;99593.84;;;10.79;83.30
17362;BME280;8798;51.938;4.348;2022-12-29T06:02:57;99596.69;;;10.77;83.47
17362;BME280;8798;51.938;4.348;2022-12-29T06:05:26;99584.47;;;10.75;83.83
17362;BME280;8798;51.938;4.348;2022-12-29T06:07:55;99590.88;;;10.74;83.37
17362;BME280;8798;51.938;4.348;2022-12-29T06:10:24;99590.03;;;10.73;83.86
17362;BME280;8798;51.938;4.348;2022-12-29T06:12:52;99582.31;;;10.70;83.98
17362;BME280;8798;51.938;4.348;2022-12-29T06:15:19;99574.66;;;10.67;83.52
17362;BME280;8798;51.938;4.348;2022-12-29T06:17:47;99574.00;;;10.65;83.92
17362;BME280;8798;51.938;4.348;2022-12-29T06:20:15;99574.19;;;10.64;84.14
17362;BME280;8798;51.938;4.348;2022-12-29T06:22:43;99577.88;;;10.63;83.30
17362;BME280;8798;51.938;4.348;2022-12-29T06:25:13;99577.06;;;10.62;83.77
17362;BME280;8798;51.938;4.348;2022-12-29T06:27:41;99593.81;;;10.64;83.49
17362;BME280;8798;51.938;4.348;2022-12-29T06:30:10;99591.13;;;10.64;83.63
17362;BME280;8798;51.938;4.348;2022-12-29T06:32:38;99600.22;;;10.63;83.81
17362;BME280;8798;51.938;4.348;2022-12-29T06:35:06;99592.34;;;10.62;83.24
17362;BME280;8798;51.938;4.348;2022-12-29T06:37:35;99591.69;;;10.60;83.57
17362;BME280;8798;51.938;4.348;2022-12-29T06:40:03;99589.38;;;10.57;83.30
17362;BME280;8798;51.938;4.348;2022-12-29T06:42:32;99578.81;;;10.55;83.31
17362;BME280;8798;51.938;4.348;2022-12-29T06:45:00;99569.47;;;10.51;83.53
17362;BME280;8798;51.938;4.348;2022-12-29T06:47:28;99565.09;;;10.50;83.47
17362;BME280;8798;51.938;4.348;2022-12-29T06:49:55;99576.88;;;10.49;83.26
17362;BME280;8798;51.938;4.348;2022-12-29T06:52:23;99567.31;;;10.46;83.45
17362;BME280;8798;51.938;4.348;2022-12-29T06:54:51;99570.19;;;10.45;83.55
17362;BME280;8798;51.938;4.348;2022-12-29T06:57:19;99565.63;;;10.45;83.19
17362;BME280;8798;51.938;4.348;2022-12-29T06:59:48;99594.63;;;10.50;83.45
17362;BME280;8798;51.938;4.348;2022-12-29T07:02:16;99612.06;;;10.54;83.50
17362;BME280;8798;51.938;4.348;2022-12-29T07:04:44;99627.13;;;10.55;83.56
17362;BME280;8798;51.938;4.348;2022-12-29T07:07:12;99633.31;;;10.55;83.46
17362;BME280;8798;51.938;4.348;2022-12-29T07:09:40;99636.88;;;10.56;83.68
17362;BME280;8798;51.938;4.348;2022-12-29T07:12:08;99651.78;;;10.59;83.39
17362;BME280;8798;51.938;4.348;2022-12-29T07:14:36;99673.72;;;10.62;83.65
17362;BME280;8798;51.938;4.348;2022-12-29T07:17:10;99680.78;;;10.63;83.11
17362;BME280;8798;51.938;4.348;2022-12-29T07:19:38;99706.25;;;10.67;83.60
17362;BME280;8798;51.938;4.348;2022-12-29T07:22:05;99711.25;;;10.70;83.46
17362;BME280;8798;51.938;4.348;2022-12-29T07:24:33;99736.75;;;10.74;83.68
17362;BME280;8798;51.938;4.348;2022-12-29T07:27:01;99751.66;;;10.77;83.87
17362;BME280;8798;51.938;4.348;2022-12-29T07:29:29;99767.41;;;10.80;83.54
17362;BME280;8798;51.938;4.348;2022-12-29T07:31:56;99780.50;;;10.83;83.60
17362;BME280;8798;51.938;4.348;2022-12-29T07:34:26;99794.41;;;10.87;82.98
17362;BME280;8798;51.938;4.348;2022-12-29T07:36:53;99810.16;;;10.90;83.52
17362;BME280;8798;51.938;4.348;2022-12-29T07:39:21;99840.84;;;10.95;83.42
17362;BME280;8798;51.938;4.348;2022-12-29T07:41:49;99848.72;;;10.97;83.15
17362;BME280;8798;51.938;4.348;2022-12-29T07:44:17;99859.09;;;11.00;82.95
17362;BME280;8798;51.938;4.348;2022-12-29T07:46:45;99863.47;;;11.01;83.25
17362;BME280;8798;51.938;4.348;2022-12-29T07:49:22;99878.22;;;11.05;82.73
17362;BME280;8798;51.938;4.348;2022-12-29T07:51:51;99886.94;;;11.07;83.36
17362;BME280;8798;51.938;4.348;2022-12-29T07:54:19;99901.88;;;11.10;83.22
17362;BME280;8798;51.938;4.348;2022-12-29T07:56:49;99907.06;;;11.11;83.48
17362;BME280;8798;51.938;4.348;2022-12-29T07:59:17;99917.66;;;11.13;82.93
17362;BME280;8798;51.938;4.348;2022-12-29T08:01:45;99925.53;;;11.14;82.52
17362;BME280;8798;51.938;4.348;2022-12-29T08:04:14;99934.25;;;11.16;82.64
17362;BME280;8798;51.938;4.348;2022-12-29T08:06:41;99940.28;;;11.18;82.72
17362;BME280;8798;51.938;4.348;2022-12-29T08:09:11;99945.66;;;11.18;82.84
17362;BME280;8798;51.938;4.348;2022-12-29T08:11:47;99946.34;;;11.21;82.61
17362;BME280;8798;51.938;4.348;2022-12-29T08:14:15;99949.03;;;11.21;82.72
17362;BME280;8798;51.938;4.348;2022-12-29T08:16:43;99945.47;;;11.20;83.10
17362;BME280;8798;51.938;4.348;2022-12-29T08:19:12;99939.25;;;11.19;82.13
17362;BME280;8798;51.938;4.348;2022-12-29T08:21:42;99939.47;;;11.18;82.86
17362;BME280;8798;51.938;4.348;2022-12-29T08:24:11;99935.09;;;11.17;82.57
17362;BME280;8798;51.938;4.348;2022-12-29T08:26:38;99932.59;;;11.15;82.74
17362;BME280;8798;51.938;4.348;2022-12-29T08:29:06;99914.97;;;11.13;82.15
17362;BME280;8798;51.938;4.348;2022-12-29T08:31:34;99907.25;;;11.10;82.05
17362;BME280;8798;51.938;4.348;2022-12-29T08:34:02;99902.06;;;11.08;82.47
17362;BME280;8798;51.938;4.348;2022-12-29T08:36:30;99898.72;;;11.06;82.41
17362;BME280;8798;51.938;4.348;2022-12-29T08:38:59;99879.25;;;11.04;82.07
17362;BME280;8798;51.938;4.348;2022-12-29T08:41:28;99878.78;;;11.01;82.47
17362;BME280;8798;51.938;4.348;2022-12-29T08:43:56;99842.88;;;10.93;82.42
17362;BME280;8798;51.938;4.348;2022-12-29T08:46:24;99824.78;;;10.87;82.16
17362;BME280;8798;51.938;4.348;2022-12-29T08:48:53;99800.50;;;10.81;82.04
17362;BME280;8798;51.938;4.348;2022-12-29T08:51:21;99787.59;;;10.76;82.15
17362;BME280;8798;51.938;4.348;2022-12-29T08:53:51;99771.19;;;10.71;81.95
17362;BME280;8798;51.938;4.348;2022-12-29T08:56:19;99763.47;;;10.68;81.95
17362;BME280;8798;51.938;4.348;2022-12-29T08:58:48;99749.75;;;10.63;82.22
17362;BME280;8798;51.938;4.348;2022-12-29T09:01:16;99748.09;;;10.62;82.50
17362;BME280;8798;51.938;4.348;2022-12-29T09:03:44;99748.91;;;10.62;82.11
17362;BME280;8798;51.938;4.348;2022-12-29T09:06:32;99754.47;;;10.61;82.08
17362;BME280;8798;51.938;4.348;2022-12-29T09:09:06;99767.72;;;10.62;82.20
17362;BME280;8798;51.938;4.348;2022-12-29T09:11:34;99779.94;;;10.65;82.36
17362;BME280;8798;51.938;4.348;2022-12-29T09:14:03;99783.47;;;10.65;82.55
17362;BME280;8798;51.938;4.348;2022-12-29T09:16:31;99799.41;;;10.67;82.52
17362;BME280;8798;51.938;4.348;2022-12-29T09:18:59;99813.50;;;10.69;82.50
17362;BME280;8798;51.938;4.348;2022-12-29T09:21:28;99821.38;;;10.70;82.46
17362;BME280;8798;51.938;4.348;2022-12-29T09:23:56;99827.41;;;10.72;82.22
17362;BME280;8798;51.938;4.348;2022-12-29T09:26:23;99847.69;;;10.75;82.50
17362;BME280;8798;51.938;4.348;2022-12-29T09:28:52;99859.09;;;10.77;82.66
17362;BME280;8798;51.938;4.348;2022-12-29T09:31:21;99874.03;;;10.80;82.26
17362;BME280;8798;51.938;4.348;2022-12-29T09:33:49;99896.84;;;10.84;82.43
17362;BME280;8798;51.938;4.348;2022-12-29T09:36:16;99921.34;;;10.89;82.27
17362;BME280;8798;51.938;4.348;2022-12-29T09:38:44;99929.19;;;10.90;82.18
17362;BME280;8798;51.938;4.348;2022-12-29T09:41:18;99941.47;;;10.93;82.56
17362;BME280;8798;51.938;4.348;2022-12-29T09:43:59;99960.59;;;10.98;82.55
17362;BME280;8798;51.938;4.348;2022-12-29T09:46:34;99966.59;;;11.00;82.37
17362;BME280;8798;51.938;4.348;2022-12-29T09:49:13;99989.59;;;11.03;82.80
17362;BME280;8798;51.938;4.348;2022-12-29T09:51:47;100000.84;;;11.06;82.87
17362;BME280;8798;51.938;4.348;2022-12-29T09:54:36;100013.09;;;11.09;82.48
17362;BME280;8798;51.938;4.348;2022-12-29T09:57:10;100035.06;;;11.12;82.41
17362;BME280;8798;51.938;4.348;2022-12-29T09:59:42;100045.66;;;11.14;82.47
17362;BME280;8798;51.938;4.348;2022-12-29T10:02:29;100050.66;;;11.17;82.98
17362;BME280;8798;51.938;4.348;2022-12-29T10:04:58;100067.47;;;11.19;82.55
17362;BME280;8798;51.938;4.348;2022-12-29T10:07:33;100079.72;;;11.22;82.99
17362;BME280;8798;51.938;4.348;2022-12-29T10:10:15;100081.41;;;11.23;82.61
17362;BME280;8798;51.938;4.348;2022-12-29T10:12:56;100094.50;;;11.26;82.80
17362;BME280;8798;51.938;4.348;2022-12-29T10:15:35;100112.97;;;11.29;82.85
17362;BME280;8798;51.938;4.348;2022-12-29T10:18:18;100138.50;;;11.33;83.27
17362;BME280;8798;51.938;4.348;2022-12-29T10:20:53;100131.41;;;11.32;83.24
17362;BME280;8798;51.938;4.348;2022-12-29T10:23:27;100145.38;;;11.35;83.11
17362;BME280;8798;51.938;4.348;2022-12-29T10:25:57;100152.25;;;11.38;83.29
17362;BME280;8798;51.938;4.348;2022-12-29T10:28:34;100185.50;;;11.45;82.67
17362;BME280;8798;51.938;4.348;2022-12-29T10:31:05;100205.63;;;11.49;83.05
17362;BME280;8798;51.938;4.348;2022-12-29T10:33:39;100201.28;;;11.48;83.38
17362;BME280;8798;51.938;4.348;2022-12-29T10:36:15;100182.97;;;11.44;83.18
17362;BME280;8798;51.938;4.348;2022-12-29T10:38:57;100163.00;;;11.38;83.26
17362;BME280;8798;51.938;4.348;2022-12-29T10:41:31;100142.19;;;11.32;83.21
17362;BME280;8798;51.938;4.348;2022-12-29T10:44:02;100119.34;;;11.28;83.37
17362;BME280;8798;51.938;4.348;2022-12-29T10:46:33;100114.31;;;11.25;83.40
17362;BME280;8798;51.938;4.348;2022-12-29T10:49:04;100097.69;;;11.21;82.60
17362;BME280;8798;51.938;4.348;2022-12-29T10:51:36;100088.81;;;11.21;82.86
17362;BME280;8798;51.938;4.348;2022-12-29T10:54:11;100100.38;;;11.21;83.23
17362;BME280;8798;51.938;4.348;2022-12-29T10:56:43;100100.38;;;11.21;83.30
17362;BME280;8798;51.938;4.348;2022-12-29T10:59:17;100103.06;;;11.21;83.21
17362;BME280;8798;51.938;4.348;2022-12-29T11:01:55;100100.56;;;11.19;83.18
17362;BME280;8798;51.938;4.348;2022-12-29T11:04:35;100104.06;;;11.20;83.29
17362;BME280;8798;51.938;4.348;2022-12-29T11:07:08;100105.09;;;11.19;82.85
17362;BME280;8798;51.938;4.348;2022-12-29T11:09:43;100099.88;;;11.17;82.76
17362;BME280;8798;51.938;4.348;2022-12-29T11:12:23;100100.06;;;11.16;83.00
17362;BME280;8798;51.938;4.348;2022-12-29T11:15:02;100110.47;;;11.19;83.04
17362;BME280;8798;51.938;4.348;2022-12-29T11:17:43;100130.44;;;11.25;82.52
17362;BME280;8798;51.938;4.348;2022-12-29T11:20:32;100159.50;;;11.29;82.39
17362;BME280;8798;51.938;4.348;2022-12-29T11:23:00;100172.78;;;11.31;82.58
17362;BME280;8798;51.938;4.348;2022-12-29T11:25:28;100170.09;;;11.31;82.71
17362;BME280;8798;51.938;4.348;2022-12-29T11:27:58;100174.63;;;11.30;82.56
17362;BME280;8798;51.938;4.348;2022-12-29T11:30:28;100188.56;;;11.34;82.86
17362;BME280;8798;51.938;4.348;2022-12-29T11:32:57;100213.91;;;11.39;83.10
17362;BME280;8798;51.938;4.348;2022-12-29T11:35:36;100232.22;;;11.44;82.43
17362;BME280;8798;51.938;4.348;2022-12-29T11:38:17;100224.50;;;11.41;83.20
17362;BME280;8798;51.938;4.348;2022-12-29T11:40:47;100203.50;;;11.36;82.40
17362;BME280;8798;51.938;4.348;2022-12-29T11:43:23;100195.78;;;11.33;82.28
17362;BME280;8798;51.938;4.348;2022-12-29T11:45:55;100215.09;;;11.37;82.47
17362;BME280;8798;51.938;4.348;2022-12-29T11:48:28;100226.16;;;11.42;82.86
17362;BME280;8798;51.938;4.348;2022-12-29T11:50:58;100241.97;;;11.45;82.37
17362;BME280;8798;51.938;4.348;2022-12-29T11:53:28;100252.53;;;11.47;82.25
17362;BME280;8798;51.938;4.348;2022-12-29T11:56:00;100273.56;;;11.51;82.09
17362;BME280;8798;51.938;4.348;2022-12-29T11:58:31;100277.06;;;11.52;82.52
17362;BME280;8798;51.938;4.348;2022-12-29T12:01:01;100275.41;;;11.51;82.83
17362;BME280;8798;51.938;4.348;2022-12-29T12:03:31;100271.88;;;11.50;82.71
17362;BME280;8798;51.938;4.348;2022-12-29T12:06:02;100277.94;;;11.52;82.36
17362;BME280;8798;51.938;4.348;2022-12-29T12:08:34;100293.88;;;11.54;82.37
17362;BME280;8798;51.938;4.348;2022-12-29T12:11:06;100305.16;;;11.57;82.51
17362;BME280;8798;51.938;4.348;2022-12-29T12:13:41;100297.25;;;11.56;81.99
17362;BME280;8798;51.938;4.348;2022-12-29T12:16:14;100292.91;;;11.55;81.87
17362;BME280;8798;51.938;4.348;2022-12-29T12:18:48;100302.47;;;11.57;81.88
17362;BME280;8798;51.938;4.348;2022-12-29T12:21:26;100311.19;;;11.59;81.86
17362;BME280;8798;51.938;4.348;2022-12-29T12:24:32;100313.03;;;11.59;82.23
17362;BME280;8798;51.938;4.348;2022-12-29T12:27:10;100304.47;;;11.55;81.71
17362;BME280;8798;51.938;4.348;2022-12-29T12:29:44;100301.78;;;11.55;82.27
17362;BME280;8798;51.938;4.348;2022-12-29T12:32:17;100292.91;;;11.55;82.03
17362;BME280;8798;51.938;4.348;2022-12-29T12:34:48;100297.41;;;11.54;82.00
17362;BME280;8798;51.938;4.348;2022-12-29T12:37:42;100300.97;;;11.55;81.58
17362;BME280;8798;51.938;4.348;2022-12-29T12:40:34;100300.78;;;11.56;81.39
17362;BME280;8798;51.938;4.348;2022-12-29T12:43:18;100302.63;;;11.56;81.30
17362;BME280;8798;51.938;4.348;2022-12-29T12:45:58;100304.47;;;11.55;81.59
17362;BME280;8798;51.938;4.348;2022-12-29T12:48:45;100293.88;;;11.54;81.52
17362;BME280;8798;51.938;4.348;2022-12-29T12:51:19;100301.59;;;11.57;81.24
17362;BME280;8798;51.938;4.348;2022-12-29T12:54:00;100306.16;;;11.56;81.24
17362;BME280;8798;51.938;4.348;2022-12-29T12:56:52;100309.88;;;11.55;81.54
17362;BME280;8798;51.938;4.348;2022-12-29T12:59:34;100324.81;;;11.58;81.55
17362;BME280;8798;51.938;4.348;2022-12-29T13:02:15;100336.06;;;11.61;81.48
17362;BME280;8798;51.938;4.348;2022-12-29T13:08:26;100341.28;;;11.63;81.50
17362;BME280;8798;51.938;4.348;2022-12-29T13:11:04;100350.88;;;11.66;81.06
17362;BME280;8798;51.938;4.348;2022-12-29T13:13:54;100364.81;;;11.69;81.44
17362;BME280;8798;51.938;4.348;2022-12-29T13:16:34;100371.88;;;11.70;80.84
17362;BME280;8798;51.938;4.348;2022-12-29T13:19:11;100364.81;;;11.69;80.71
17362;BME280;8798;51.938;4.348;2022-12-29T13:21:53;100355.22;;;11.67;81.07
17362;BME280;8798;51.938;4.348;2022-12-29T13:24:38;100353.41;;;11.67;80.91
17362;BME280;8798;51.938;4.348;2022-12-29T13:27:16;100356.09;;;11.67;80.98
17362;BME280;8798;51.938;4.348;2022-12-29T13:29:50;100353.56;;;11.66;80.32
17362;BME280;8798;51.938;4.348;2022-12-29T13:32:37;100344.13;;;11.61;80.80
17362;BME280;8798;51.938;4.348;2022-12-29T13:35:28;100292.38;;;11.51;80.91
17362;BME280;8798;51.938;4.348;2022-12-29T13:38:01;100256.63;;;11.43;80.58